Hammonton, California
Current Conditions -  °F | °C
As of 12:32 PM on Friday 21 Nov 2014 (Local Time) from KBAB Reporting Station
Broken Clouds Broken Clouds  
Wind Chill: 54°   Ceiling: 700
Heat Index: 54°   Visibility: 8mi
Dew Point: 52°   Wind: 1mph
Humidity: 94%   Direction: 260°W
Pressure: 30.09"   Gusts: NA
Location:  39.1912°N, 121.489°W
Report Text: KBAB 212032Z AUTO 26001KT 8SM BKN007 12/11 A3009 RMK AO2 $
Loading
Personal Weather Stations






























Interactive Weather Map New forecast layout! Learn more

10-Day Weather Forecast

Advertisements
Track Severe Weather on mobile